Time;durP1;ratioP1;P1;durP2;ratioP2;P2;SDS_P1;SDS_P2;PMS_P1;PMS_P2;Temp;Humidity;BMP_temperature;BMP_pressure;BME280_temperature;BME280_humidity;BME280_pressure;Samples;Min_cycle;Max_cycle;Signal;HPM_P1;HPM_P2
2022/07/16 05:00:08;;;;;;;5.80;3.13;;;18.40;97.20;;;;;;1715358;28;20232;-71
2022/07/16 05:00:59;;;;;;;3.95;3.60;;;18.50;97.20;;;;;;1714800;28;20217;-71
2022/07/16 05:01:51;;;;;;;4.63;4.23;;;18.50;97.20;;;;;;1715281;28;20308;-71
2022/07/16 05:02:57;;;;;;;4.13;3.75;;;18.50;97.20;;;;;;1715230;28;20209;-71
2022/07/16 05:03:48;;;;;;;7.25;4.53;;;18.50;97.20;;;;;;1715332;28;20225;-71
2022/07/16 05:04:39;;;;;;;4.40;4.00;;;18.50;97.20;;;;;;1715155;28;20213;-71
2022/07/16 05:05:33;;;;;;;4.30;3.90;;;18.50;97.20;;;;;;1715158;28;20312;-73
2022/07/16 05:06:24;;;;;;;3.92;3.60;;;18.50;97.20;;;;;;1715088;28;20273;-72
2022/07/16 05:07:15;;;;;;;5.47;3.90;;;18.50;97.20;;;;;;1714901;28;20201;-71
2022/07/16 05:08:12;;;;;;;4.05;3.65;;;18.60;97.20;;;;;;1715127;28;20212;-72
2022/07/16 05:09:04;;;;;;;4.80;4.32;;;18.60;97.20;;;;;;1715142;28;20292;-71
2022/07/16 05:09:55;;;;;;;4.70;4.13;;;18.60;97.20;;;;;;1715233;28;20206;-71
2022/07/16 05:10:47;;;;;;;4.93;4.10;;;18.60;97.20;;;;;;1714876;28;20193;-74
2022/07/16 05:13:32;;;;;;;4.93;4.43;;;18.70;97.20;;;;;;1686988;28;20280;-71
2022/07/16 05:14:23;;;;;;;5.50;4.45;;;18.70;97.20;;;;;;1715172;28;20654;-72
2022/07/16 05:15:16;;;;;;;4.13;3.73;;;18.70;97.20;;;;;;1715045;28;20604;-72
2022/07/16 05:16:07;;;;;;;4.65;4.15;;;18.70;97.20;;;;;;1715231;28;20197;-71
2022/07/16 05:16:59;;;;;;;4.03;3.73;;;18.70;97.20;;;;;;1714887;28;20293;-71
2022/07/16 05:17:49;;;;;;;5.75;4.20;;;18.70;97.20;;;;;;1715064;28;20206;-71
2022/07/16 05:18:41;;;;;;;4.87;4.33;;;18.70;97.20;;;;;;1715150;28;20198;-71
2022/07/16 05:19:32;;;;;;;4.82;4.15;;;18.70;97.20;;;;;;1715060;28;20212;-71
2022/07/16 05:20:24;;;;;;;4.97;4.43;;;18.80;97.20;;;;;;1714802;28;20212;-72
2022/07/16 05:21:15;;;;;;;4.53;4.15;;;18.80;97.20;;;;;;1715141;28;20202;-73
2022/07/16 05:22:07;;;;;;;6.15;4.30;;;18.80;97.20;;;;;;1715119;28;20202;-71
2022/07/16 05:22:58;;;;;;;4.30;3.90;;;18.80;97.20;;;;;;1714861;28;20206;-72
2022/07/16 05:23:50;;;;;;;5.60;4.38;;;18.80;97.20;;;;;;1715124;28;20555;-71
2022/07/16 05:24:41;;;;;;;5.18;4.68;;;18.80;97.20;;;;;;1715096;28;20736;-73
2022/07/16 05:25:33;;;;;;;4.63;4.23;;;18.80;97.20;;;;;;1715066;28;20673;-71
2022/07/16 05:26:23;;;;;;;5.45;4.13;;;18.90;97.20;;;;;;1714624;28;20205;-71
2022/07/16 05:27:14;;;;;;;5.20;4.40;;;18.90;97.20;;;;;;1714594;28;20284;-72
2022/07/16 05:28:06;;;;;;;5.57;3.80;;;18.90;97.20;;;;;;1714832;28;20328;-73
2022/07/16 05:28:57;;;;;;;4.22;3.83;;;18.90;97.20;;;;;;1715082;28;20209;-71
2022/07/16 05:29:48;;;;;;;4.40;4.00;;;18.90;97.20;;;;;;1715098;28;20212;-72
2022/07/16 05:30:41;;;;;;;4.43;3.90;;;18.90;97.20;;;;;;1715078;28;20206;-71
2022/07/16 05:31:32;;;;;;;4.30;3.92;;;18.90;97.20;;;;;;1715045;28;20449;-71
2022/07/16 05:32:23;;;;;;;4.70;4.30;;;18.90;97.20;;;;;;1714193;28;20217;-71
2022/07/16 05:33:14;;;;;;;4.95;4.55;;;19.00;97.20;;;;;;1713041;28;20480;-72
2022/07/16 05:34:06;;;;;;;4.03;3.73;;;19.00;97.20;;;;;;1713572;28;20202;-73
2022/07/16 05:34:57;;;;;;;5.13;3.90;;;19.00;97.20;;;;;;1714808;28;20198;-71
2022/07/16 05:35:49;;;;;;;5.50;4.00;;;19.00;97.20;;;;;;1714710;28;20309;-72
2022/07/16 05:36:39;;;;;;;4.43;4.03;;;19.00;97.20;;;;;;1714523;28;20206;-72
2022/07/16 05:37:31;;;;;;;5.17;3.90;;;19.00;97.20;;;;;;1714283;28;20710;-72
2022/07/16 05:38:22;;;;;;;4.32;3.90;;;19.00;97.20;;;;;;1714500;28;20555;-71
2022/07/16 05:39:14;;;;;;;4.13;3.73;;;19.10;97.20;;;;;;1715056;28;20309;-71
2022/07/16 05:40:06;;;;;;;5.10;3.90;;;19.10;97.20;;;;;;1714965;28;20206;-71
2022/07/16 05:40:58;;;;;;;4.13;3.75;;;19.10;97.20;;;;;;1714482;28;20202;-71
2022/07/16 05:41:48;;;;;;;4.97;3.78;;;19.10;97.20;;;;;;1715103;28;20544;-71
2022/07/16 05:42:40;;;;;;;5.10;4.07;;;19.10;97.20;;;;;;1714933;28;20673;-71
2022/07/16 05:43:31;;;;;;;5.15;4.25;;;19.10;97.20;;;;;;1714649;28;20194;-71
2022/07/16 05:44:23;;;;;;;4.60;4.00;;;19.10;97.20;;;;;;1708276;29;20226;-71
2022/07/16 05:45:14;;;;;;;5.18;3.85;;;19.10;97.20;;;;;;1710977;28;20216;-73
2022/07/16 05:46:07;;;;;;;3.83;3.53;;;19.10;97.20;;;;;;1715130;28;20555;-71
2022/07/16 05:46:58;;;;;;;4.00;3.70;;;19.10;97.20;;;;;;1714684;28;20202;-71
2022/07/16 05:47:50;;;;;;;4.90;3.45;;;19.20;97.20;;;;;;1715438;28;20661;-71
2022/07/16 05:48:40;;;;;;;4.63;4.13;;;19.20;97.20;;;;;;1714945;28;20213;-71
2022/07/16 05:49:32;;;;;;;5.93;3.63;;;19.20;97.20;;;;;;1715040;28;20202;-71
2022/07/16 05:50:23;;;;;;;4.13;3.72;;;19.20;97.20;;;;;;1714866;28;20201;-71
2022/07/16 05:51:15;;;;;;;4.07;3.53;;;19.30;97.20;;;;;;1714801;28;20205;-72
2022/07/16 05:52:06;;;;;;;4.22;3.83;;;19.30;97.20;;;;;;1714698;28;20453;-72
2022/07/16 05:52:58;;;;;;;4.20;3.70;;;19.30;97.20;;;;;;1714841;28;20225;-71
2022/07/16 05:53:48;;;;;;;5.18;3.92;;;19.30;97.20;;;;;;1714863;28;20585;-71
2022/07/16 05:54:40;;;;;;;4.27;3.83;;;19.40;97.20;;;;;;1714949;28;20652;-71
2022/07/16 05:55:31;;;;;;;3.80;3.30;;;19.40;97.20;;;;;;1714982;28;20595;-70
2022/07/16 05:56:23;;;;;;;4.70;3.50;;;19.40;97.20;;;;;;1714489;28;20570;-72
2022/07/16 05:57:14;;;;;;;3.83;3.08;;;19.40;97.20;;;;;;1714664;28;20453;-74
2022/07/16 05:58:06;;;;;;;4.50;3.77;;;19.40;97.20;;;;;;1714513;28;20226;-71
2022/07/16 05:59:02;;;;;;;4.53;3.90;;;19.50;97.20;;;;;;1714787;28;20206;-72
2022/07/16 05:59:53;;;;;;;3.67;3.38;;;19.50;97.20;;;;;;1714951;28;20198;-72
2022/07/16 06:00:44;;;;;;;5.55;3.25;;;19.50;97.20;;;;;;1714648;28;20213;-74
2022/07/16 06:01:37;;;;;;;3.93;3.50;;;19.60;97.20;;;;;;1714877;28;20216;-71
2022/07/16 06:02:28;;;;;;;5.22;3.60;;;19.60;97.20;;;;;;1714853;28;20201;-71
2022/07/16 06:03:20;;;;;;;4.53;3.60;;;19.60;97.20;;;;;;1714808;28;20197;-71
2022/07/16 06:04:10;;;;;;;3.75;3.35;;;19.60;97.20;;;;;;1714856;28;20225;-71
2022/07/16 06:05:02;;;;;;;4.63;3.33;;;19.60;97.20;;;;;;1714966;28;20304;-74
2022/07/16 06:05:53;;;;;;;4.45;2.90;;;19.70;97.20;;;;;;1714925;28;20230;-71
2022/07/16 06:06:45;;;;;;;3.47;2.90;;;19.70;97.20;;;;;;1714522;28;20294;-71
2022/07/16 06:07:36;;;;;;;3.70;3.33;;;19.70;97.20;;;;;;1714811;28;20205;-71
2022/07/16 06:08:27;;;;;;;4.80;4.10;;;19.80;97.20;;;;;;1714331;28;20286;-73
2022/07/16 06:09:18;;;;;;;5.40;4.90;;;19.80;97.20;;;;;;1714618;28;20205;-72
2022/07/16 06:10:10;;;;;;;4.30;3.50;;;19.80;97.20;;;;;;1714884;28;20200;-72
2022/07/16 06:11:01;;;;;;;4.07;3.67;;;19.80;97.20;;;;;;1714701;28;20666;-71
2022/07/16 06:11:52;;;;;;;3.50;2.90;;;19.80;97.20;;;;;;1714848;28;20642;-71
2022/07/16 06:12:43;;;;;;;5.93;3.33;;;19.80;97.20;;;;;;1714825;28;20225;-71
2022/07/16 06:13:36;;;;;;;4.93;3.10;;;19.90;97.20;;;;;;1714781;28;20280;-71
2022/07/16 06:14:27;;;;;;;3.50;3.20;;;19.90;97.20;;;;;;1714725;28;20202;-71
2022/07/16 06:15:19;;;;;;;3.70;3.40;;;19.90;97.20;;;;;;1714525;28;20280;-70
2022/07/16 06:16:10;;;;;;;4.65;3.03;;;19.90;97.20;;;;;;1714804;28;20209;-71
2022/07/16 06:17:03;;;;;;;4.60;3.50;;;19.90;97.20;;;;;;1714510;28;20282;-72
2022/07/16 06:17:53;;;;;;;3.55;3.25;;;19.90;97.20;;;;;;1714642;28;20213;-71
2022/07/16 06:18:45;;;;;;;3.80;3.50;;;19.90;97.20;;;;;;1714726;28;20288;-71
2022/07/16 06:19:40;;;;;;;7.72;4.20;;;20.00;97.20;;;;;;1714809;28;20216;-71
2022/07/16 06:20:31;;;;;;;4.28;3.83;;;20.00;97.20;;;;;;1714736;28;20229;-71
2022/07/16 06:21:22;;;;;;;3.35;3.05;;;20.00;97.20;;;;;;1714702;28;20206;-71
2022/07/16 06:22:14;;;;;;;3.60;3.30;;;20.10;97.20;;;;;;1714809;28;20321;-72
2022/07/16 06:23:05;;;;;;;4.35;3.55;;;20.10;97.20;;;;;;1714694;28;20220;-72
2022/07/16 06:23:56;;;;;;;4.20;3.40;;;20.10;97.20;;;;;;1714776;28;20209;-71
2022/07/16 06:24:47;;;;;;;4.97;2.80;;;20.10;97.20;;;;;;1714724;28;20203;-72
2022/07/16 06:25:40;;;;;;;3.93;3.20;;;20.20;97.20;;;;;;1714656;28;20300;-71
2022/07/16 06:26:31;;;;;;;4.28;3.88;;;20.20;97.20;;;;;;1714721;28;20209;-71
2022/07/16 06:27:22;;;;;;;3.70;3.30;;;20.20;97.20;;;;;;1714445;28;20201;-72
2022/07/16 06:28:13;;;;;;;4.20;2.80;;;20.30;97.20;;;;;;1714350;28;20493;-71
2022/07/16 06:29:05;;;;;;;3.33;2.70;;;20.30;97.20;;;;;;1714744;28;20329;-71
2022/07/16 06:29:56;;;;;;;3.10;2.80;;;20.30;97.20;;;;;;1714759;28;20286;-71
2022/07/16 06:30:48;;;;;;;3.30;2.80;;;20.30;97.20;;;;;;1714388;28;20286;-71
2022/07/16 06:31:38;;;;;;;3.97;2.90;;;20.30;97.20;;;;;;1714744;28;20453;-71
2022/07/16 06:32:32;;;;;;;4.60;3.00;;;20.30;97.20;;;;;;1714616;28;20277;-72
2022/07/16 06:33:23;;;;;;;4.72;3.40;;;20.40;97.20;;;;;;1714694;28;20214;-71
2022/07/16 06:34:14;;;;;;;4.13;3.70;;;20.40;97.20;;;;;;1714461;28;20325;-72
2022/07/16 06:35:06;;;;;;;4.50;3.00;;;20.40;97.20;;;;;;1714474;28;20206;-73
2022/07/16 06:35:57;;;;;;;3.75;3.28;;;20.50;97.20;;;;;;1714477;28;20226;-71
2022/07/16 06:36:48;;;;;;;3.60;3.22;;;20.50;97.20;;;;;;1714451;28;20209;-71
2022/07/16 06:37:40;;;;;;;3.20;2.90;;;20.50;97.20;;;;;;1714618;28;20297;-71
2022/07/16 06:38:31;;;;;;;3.50;3.20;;;20.50;97.20;;;;;;1714372;28;20198;-71
2022/07/16 06:39:23;;;;;;;4.10;3.23;;;20.50;97.20;;;;;;1714595;28;20220;-72
2022/07/16 06:40:13;;;;;;;2.90;2.70;;;20.60;97.20;;;;;;1714653;28;20858;-72
2022/07/16 06:41:05;;;;;;;3.87;3.57;;;20.60;97.20;;;;;;1714573;28;20224;-71
2022/07/16 06:41:56;;;;;;;3.38;2.75;;;20.60;97.20;;;;;;1714615;28;20224;-72
2022/07/16 06:42:48;;;;;;;4.87;3.00;;;20.70;97.20;;;;;;1714605;28;20280;-71
2022/07/16 06:43:39;;;;;;;7.43;2.88;;;20.70;97.20;;;;;;1714620;28;20286;-71
2022/07/16 06:44:31;;;;;;;4.20;3.13;;;20.70;97.20;;;;;;1714618;28;20370;-72
2022/07/16 06:45:21;;;;;;;3.85;3.55;;;20.80;97.20;;;;;;1714562;28;20206;-73
2022/07/16 06:46:13;;;;;;;5.83;2.93;;;20.80;97.20;;;;;;1714562;28;20221;-71
2022/07/16 06:47:04;;;;;;;5.35;3.00;;;20.80;97.20;;;;;;1714258;28;20456;-71
2022/07/16 06:47:57;;;;;;;4.47;2.83;;;20.80;97.20;;;;;;1714591;28;20212;-72
2022/07/16 06:48:48;;;;;;;3.00;2.70;;;20.80;97.20;;;;;;1714298;28;20198;-71
2022/07/16 06:49:39;;;;;;;3.17;2.87;;;20.90;97.20;;;;;;1714629;28;20288;-71
2022/07/16 06:50:30;;;;;;;3.22;2.50;;;20.90;97.20;;;;;;1714594;28;20669;-71
2022/07/16 06:51:22;;;;;;;5.00;2.67;;;20.90;97.20;;;;;;1714571;28;20552;-71
2022/07/16 06:52:13;;;;;;;5.07;2.90;;;21.00;97.20;;;;;;1714614;28;20205;-71
2022/07/16 06:53:05;;;;;;;2.90;2.60;;;21.00;97.20;;;;;;1714560;28;20213;-73
2022/07/16 06:53:55;;;;;;;4.78;3.20;;;21.00;97.20;;;;;;1714475;28;20202;-71
2022/07/16 06:54:47;;;;;;;4.23;3.00;;;21.00;97.20;;;;;;1714565;28;20244;-71
2022/07/16 06:55:38;;;;;;;6.85;3.20;;;21.10;97.20;;;;;;1714472;28;20222;-72
2022/07/16 06:56:30;;;;;;;3.77;3.10;;;21.10;97.20;;;;;;1714506;28;20206;-71
2022/07/16 06:57:22;;;;;;;3.38;2.92;;;21.10;97.20;;;;;;1714264;28;20692;-71
2022/07/16 06:58:13;;;;;;;2.90;2.65;;;21.10;97.20;;;;;;1714289;28;20218;-71
2022/07/16 06:59:04;;;;;;;3.45;3.15;;;21.20;97.20;;;;;;1707882;28;20207;-71
2022/07/16 06:59:56;;;;;;;4.07;3.23;;;21.20;97.20;;;;;;1707959;29;20713;-72
2022/07/16 07:00:47;;;;;;;3.40;3.10;;;21.20;97.20;;;;;;1707879;29;20210;-71
2022/07/16 07:01:38;;;;;;;3.80;2.77;;;21.20;97.20;;;;;;1707886;29;20203;-71
2022/07/16 07:02:29;;;;;;;3.65;2.72;;;21.20;97.20;;;;;;1707796;29;20312;-71
2022/07/16 07:03:22;;;;;;;5.20;3.27;;;21.30;97.20;;;;;;1707889;29;20199;-71
2022/07/16 07:04:13;;;;;;;4.50;2.83;;;21.30;97.20;;;;;;1707850;29;20203;-71
2022/07/16 07:05:06;;;;;;;3.57;3.27;;;21.40;97.20;;;;;;1707788;29;20194;-71
2022/07/16 07:05:57;;;;;;;3.45;3.15;;;21.40;97.20;;;;;;1707705;28;20605;-72
2022/07/16 07:06:49;;;;;;;3.53;3.20;;;21.40;97.20;;;;;;1707570;29;20218;-71
2022/07/16 07:07:39;;;;;;;4.70;3.08;;;21.50;97.20;;;;;;1707857;28;20678;-71
2022/07/16 07:08:31;;;;;;;3.80;3.00;;;21.50;97.20;;;;;;1710045;28;20611;-73
2022/07/16 07:09:22;;;;;;;2.90;2.70;;;21.50;97.20;;;;;;1714487;28;20211;-71
2022/07/16 07:10:14;;;;;;;4.67;3.20;;;21.50;97.20;;;;;;1714479;28;20248;-72
2022/07/16 07:11:05;;;;;;;3.17;2.53;;;21.60;97.20;;;;;;1714407;28;20205;-71
2022/07/16 07:11:57;;;;;;;3.45;2.63;;;21.60;97.20;;;;;;1714001;28;20210;-71
2022/07/16 07:12:47;;;;;;;4.05;3.03;;;21.60;97.20;;;;;;1714339;28;20221;-71
2022/07/16 07:13:39;;;;;;;4.43;3.30;;;21.70;97.20;;;;;;1714543;28;20240;-73
2022/07/16 07:14:30;;;;;;;4.60;3.13;;;21.70;97.20;;;;;;1714398;28;20291;-73
2022/07/16 07:15:22;;;;;;;3.70;2.70;;;21.70;97.20;;;;;;1714314;28;20252;-71
2022/07/16 07:16:13;;;;;;;4.97;2.75;;;21.80;97.20;;;;;;1714454;28;20448;-72
2022/07/16 07:17:05;;;;;;;3.50;2.80;;;21.80;97.20;;;;;;1714117;28;20259;-71
2022/07/16 07:17:55;;;;;;;3.40;3.00;;;21.80;97.20;;;;;;1714394;28;20453;-71
2022/07/16 07:18:49;;;;;;;3.67;2.60;;;21.90;97.20;;;;;;1714095;28;20286;-73
2022/07/16 07:19:39;;;;;;;6.22;3.22;;;21.90;97.20;;;;;;1714357;28;20205;-71
2022/07/16 07:20:31;;;;;;;4.53;2.97;;;22.00;97.20;;;;;;1714442;28;20224;-71
2022/07/16 07:21:22;;;;;;;5.30;2.70;;;22.00;97.20;;;;;;1714332;28;20209;-71
2022/07/16 07:22:14;;;;;;;4.17;3.00;;;22.00;97.20;;;;;;1714453;28;20284;-72
2022/07/16 07:23:05;;;;;;;3.20;2.90;;;22.10;97.20;;;;;;1714344;28;20445;-72
2022/07/16 07:23:57;;;;;;;2.83;2.63;;;22.10;97.20;;;;;;1714332;28;20197;-71
2022/07/16 07:24:48;;;;;;;5.85;3.05;;;22.10;97.20;;;;;;1714359;28;20214;-71
2022/07/16 07:25:39;;;;;;;3.73;2.90;;;22.10;97.20;;;;;;1714371;28;20230;-71
2022/07/16 07:26:30;;;;;;;3.58;2.92;;;22.10;97.20;;;;;;1714289;28;20449;-71
2022/07/16 07:27:22;;;;;;;6.40;2.83;;;22.20;97.20;;;;;;1714143;28;20277;-72
2022/07/16 07:28:13;;;;;;;3.65;2.92;;;22.20;97.20;;;;;;1714307;28;20288;-71
2022/07/16 07:29:05;;;;;;;4.63;2.70;;;22.20;97.20;;;;;;1714122;28;20202;-71
2022/07/16 07:29:56;;;;;;;3.72;2.70;;;22.20;97.20;;;;;;1714364;28;20468;-71
2022/07/16 07:30:48;;;;;;;4.43;2.80;;;22.20;97.20;;;;;;1714292;28;20292;-73
2022/07/16 07:31:39;;;;;;;3.30;3.00;;;22.30;97.20;;;;;;1714411;28;20213;-71
2022/07/16 07:32:30;;;;;;;5.10;3.17;;;22.30;97.20;;;;;;1714328;28;20292;-71
2022/07/16 07:33:21;;;;;;;3.08;2.88;;;22.30;97.20;;;;;;1714325;28;20205;-72
2022/07/16 07:34:14;;;;;;;4.35;2.95;;;22.30;97.20;;;;;;1714273;28;20316;-71
2022/07/16 07:35:06;;;;;;;5.25;3.10;;;22.40;97.20;;;;;;1714269;28;20198;-72
2022/07/16 07:35:58;;;;;;;4.00;3.10;;;22.40;97.20;;;;;;1714191;28;20218;-72
2022/07/16 07:36:49;;;;;;;2.90;2.50;;;22.40;97.20;;;;;;1714053;28;20766;-72
2022/07/16 07:37:41;;;;;;;3.17;2.67;;;22.40;97.20;;;;;;1714374;28;20647;-72
2022/07/16 07:38:31;;;;;;;3.05;2.35;;;22.40;97.20;;;;;;1714051;28;20217;-71
2022/07/16 07:39:23;;;;;;;4.37;2.20;;;22.40;97.20;;;;;;1714288;28;20229;-71
2022/07/16 07:40:14;;;;;;;3.05;2.38;;;22.40;97.20;;;;;;1714330;28;20925;-71
2022/07/16 07:41:06;;;;;;;3.58;2.55;;;22.40;97.20;;;;;;1714216;28;20276;-71
2022/07/16 07:41:57;;;;;;;4.32;2.45;;;22.40;97.20;;;;;;1714275;28;20202;-71
2022/07/16 07:42:49;;;;;;;2.90;2.27;;;22.40;97.20;;;;;;1714303;28;20240;-71
2022/07/16 07:43:40;;;;;;;3.35;2.28;;;22.50;97.20;;;;;;1714149;28;20214;-72
2022/07/16 07:44:31;;;;;;;3.10;2.30;;;22.50;97.20;;;;;;1714256;28;20225;-71
2022/07/16 07:45:22;;;;;;;3.45;2.38;;;22.50;97.20;;;;;;1714191;28;20209;-72
2022/07/16 07:46:14;;;;;;;3.40;2.47;;;22.50;97.20;;;;;;1714260;28;20288;-72
2022/07/16 07:47:05;;;;;;;4.25;2.63;;;22.60;97.20;;;;;;1713875;28;20486;-71
2022/07/16 07:47:56;;;;;;;4.50;2.73;;;22.60;97.20;;;;;;1714180;28;20209;-73
2022/07/16 07:48:47;;;;;;;3.17;2.40;;;22.60;97.20;;;;;;1713787;28;20198;-71
2022/07/16 07:49:40;;;;;;;2.53;2.30;;;22.60;97.20;;;;;;1714006;28;20288;-72
2022/07/16 07:50:32;;;;;;;4.18;2.70;;;22.70;97.20;;;;;;1714204;28;20669;-71
2022/07/16 07:51:24;;;;;;;3.00;2.33;;;22.70;97.20;;;;;;1714222;28;20194;-72
2022/07/16 07:52:15;;;;;;;2.65;2.25;;;22.70;97.20;;;;;;1714217;28;20292;-71
2022/07/16 07:53:07;;;;;;;4.33;2.30;;;22.70;97.20;;;;;;1714161;28;20197;-72
2022/07/16 07:53:58;;;;;;;4.05;2.20;;;22.80;97.20;;;;;;1714189;28;20314;-72
2022/07/16 07:54:50;;;;;;;3.10;2.07;;;22.80;97.20;;;;;;1714080;28;20390;-72
2022/07/16 07:55:41;;;;;;;2.55;2.35;;;22.80;97.20;;;;;;1714056;28;20299;-71
2022/07/16 07:56:33;;;;;;;4.43;2.30;;;22.90;97.20;;;;;;1713872;28;20209;-76
2022/07/16 07:57:24;;;;;;;3.05;2.58;;;22.90;97.20;;;;;;1714254;28;20209;-71
2022/07/16 07:58:16;;;;;;;3.90;2.20;;;22.90;97.20;;;;;;1714116;28;20280;-71
2022/07/16 07:59:06;;;;;;;4.72;2.78;;;22.90;97.20;;;;;;1713838;28;20356;-71
2022/07/16 07:59:58;;;;;;;2.30;1.97;;;23.00;97.20;;;;;;1714118;28;20264;-71
2022/07/16 08:00:51;;;;;;;4.55;2.40;;;23.00;97.20;;;;;;1714170;28;20205;-71
2022/07/16 08:01:43;;;;;;;3.78;2.05;;;23.00;97.20;;;;;;1714110;28;20206;-71
2022/07/16 08:02:34;;;;;;;2.88;2.60;;;23.00;97.20;;;;;;1714174;28;20842;-73
2022/07/16 08:03:25;;;;;;;3.53;2.43;;;23.10;97.20;;;;;;1714120;28;20533;-72
2022/07/16 08:04:16;;;;;;;3.53;2.20;;;23.10;97.20;;;;;;1714109;28;20213;-72
2022/07/16 08:05:10;;;;;;;3.23;2.27;;;23.10;97.20;;;;;;1714100;28;20285;-71
2022/07/16 08:06:01;;;;;;;3.58;2.40;;;23.10;97.20;;;;;;1714068;28;20308;-71
2022/07/16 08:06:52;;;;;;;3.17;2.63;;;23.10;97.20;;;;;;1713490;28;20297;-71
2022/07/16 08:07:44;;;;;;;2.85;2.55;;;23.10;97.20;;;;;;1713996;28;20586;-71
2022/07/16 08:08:36;;;;;;;3.50;2.25;;;23.10;97.20;;;;;;1713999;28;20212;-71
2022/07/16 08:09:26;;;;;;;2.53;2.30;;;23.10;97.20;;;;;;1714072;28;20210;-72
2022/07/16 08:10:18;;;;;;;3.80;2.23;;;23.20;97.20;;;;;;1714030;28;20225;-71
2022/07/16 08:11:10;;;;;;;2.35;2.15;;;23.20;97.20;;;;;;1713903;28;20209;-72
2022/07/16 08:12:02;;;;;;;3.80;2.83;;;23.20;97.20;;;;;;1714118;28;20208;-72
2022/07/16 08:12:53;;;;;;;3.42;2.75;;;23.20;97.20;;;;;;1713982;28;20206;-72
2022/07/16 08:13:45;;;;;;;5.93;2.60;;;23.30;97.20;;;;;;1713692;28;20288;-71
2022/07/16 08:14:36;;;;;;;3.50;2.47;;;23.30;97.20;;;;;;1713967;28;20485;-72
2022/07/16 08:15:27;;;;;;;3.42;2.38;;;23.30;97.20;;;;;;1713796;28;20202;-72
2022/07/16 08:16:18;;;;;;;3.10;2.78;;;23.30;97.20;;;;;;1714007;28;20210;-71
2022/07/16 08:17:10;;;;;;;3.20;2.77;;;23.30;97.20;;;;;;1713520;28;20277;-72
2022/07/16 08:18:01;;;;;;;2.63;2.13;;;23.40;97.20;;;;;;1713964;28;20468;-72
2022/07/16 08:18:53;;;;;;;4.10;2.87;;;23.40;97.20;;;;;;1713797;28;20212;-71
2022/07/16 08:19:44;;;;;;;3.53;2.40;;;23.50;97.20;;;;;;1714044;28;20720;-71
2022/07/16 08:20:38;;;;;;;4.67;2.67;;;23.50;97.20;;;;;;1714170;28;20736;-73
2022/07/16 08:21:29;;;;;;;4.38;2.45;;;23.50;97.20;;;;;;1714071;28;20202;-73
2022/07/16 08:22:20;;;;;;;3.57;2.90;;;23.60;97.20;;;;;;1714084;28;20229;-71
2022/07/16 08:23:11;;;;;;;4.55;2.90;;;23.60;97.20;;;;;;1714123;28;20684;-71
2022/07/16 08:26:24;;;;;;;3.90;2.80;;;23.60;97.20;;;;;;1714014;28;20233;-71
2022/07/16 08:27:15;;;;;;;3.72;3.05;;;23.70;97.20;;;;;;1713370;28;20934;-71
2022/07/16 08:28:07;;;;;;;6.67;3.70;;;23.70;97.20;;;;;;1713873;28;20580;-70
2022/07/16 08:28:58;;;;;;;3.70;3.00;;;23.70;97.20;;;;;;1713935;28;20205;-70
2022/07/16 08:29:49;;;;;;;4.80;2.97;;;23.80;97.20;;;;;;1713960;28;20202;-70
2022/07/16 08:30:40;;;;;;;4.05;3.45;;;23.80;97.20;;;;;;1713997;28;20217;-71
2022/07/16 08:31:32;;;;;;;4.27;3.20;;;23.80;97.20;;;;;;1714012;28;20739;-71
2022/07/16 08:32:23;;;;;;;6.13;2.90;;;23.80;97.20;;;;;;1713934;28;20485;-72
2022/07/16 08:33:15;;;;;;;5.03;2.97;;;23.90;97.20;;;;;;1713975;28;20222;-72
2022/07/16 08:34:05;;;;;;;4.50;3.38;;;23.90;97.20;;;;;;1714013;28;20815;-74
2022/07/16 08:34:57;;;;;;;4.27;2.77;;;24.00;97.20;;;;;;1710901;28;20634;-74
2022/07/16 08:35:49;;;;;;;8.00;3.45;;;24.00;97.20;;;;;;1713693;28;20611;-73
2022/07/16 08:36:41;;;;;;;4.88;3.30;;;24.00;97.20;;;;;;1713217;28;20209;-76
2022/07/16 08:37:35;;;;;;;4.72;2.90;;;24.10;97.20;;;;;;1712679;28;20221;-74
2022/07/16 08:38:27;;;;;;;3.67;2.90;;;24.10;97.20;;;;;;1708481;28;20206;-72
2022/07/16 08:39:18;;;;;;;2.90;2.53;;;24.10;97.20;;;;;;1712609;28;20197;-72
2022/07/16 08:40:13;;;;;;;3.72;2.65;;;24.20;97.20;;;;;;1711135;28;20201;-71
2022/07/16 08:41:05;;;;;;;5.88;2.60;;;24.20;97.20;;;;;;1707361;28;20217;-71
2022/07/16 08:41:57;;;;;;;3.63;2.55;;;24.20;97.20;;;;;;1707298;28;20202;-72
2022/07/16 08:42:50;;;;;;;3.08;2.28;;;24.20;97.20;;;;;;1707243;28;20210;-71
2022/07/16 08:43:43;;;;;;;2.15;1.98;;;24.20;97.20;;;;;;1706747;29;20210;-71
2022/07/16 08:44:33;;;;;;;3.70;2.63;;;24.30;97.20;;;;;;1706829;29;20210;-72
2022/07/16 08:45:25;;;;;;;2.60;2.40;;;24.30;97.20;;;;;;1707009;29;20286;-71
2022/07/16 08:46:20;;;;;;;3.40;2.65;;;24.30;97.20;;;;;;1707161;28;20454;-71
2022/07/16 08:47:12;;;;;;;2.92;2.63;;;24.30;97.20;;;;;;1710350;28;20230;-72
2022/07/16 08:48:03;;;;;;;6.18;3.05;;;24.30;97.20;;;;;;1713564;28;20325;-71
2022/07/16 08:48:55;;;;;;;3.57;3.17;;;24.30;97.20;;;;;;1713983;28;20229;-72
2022/07/16 08:49:46;;;;;;;3.25;2.60;;;24.40;97.20;;;;;;1713924;28;20213;-73
2022/07/16 08:50:38;;;;;;;4.87;3.77;;;24.40;97.20;;;;;;1713911;28;20297;-72
2022/07/16 08:51:32;;;;;;;3.55;3.10;;;24.40;97.20;;;;;;1713838;28;20445;-71
2022/07/16 08:52:27;;;;;;;7.75;2.72;;;24.40;97.20;;;;;;1713885;28;20224;-71
2022/07/16 08:53:23;;;;;;;5.28;3.25;;;24.40;97.20;;;;;;1713976;28;20202;-72
2022/07/16 08:54:19;;;;;;;3.33;2.70;;;24.50;97.20;;;;;;1713967;28;20225;-71
2022/07/16 08:55:10;;;;;;;4.65;3.00;;;24.40;97.20;;;;;;1713862;28;20240;-73
2022/07/16 08:56:02;;;;;;;3.15;2.30;;;24.40;97.20;;;;;;1713815;28;20264;-71
2022/07/16 08:56:53;;;;;;;3.17;2.88;;;24.40;97.20;;;;;;1713387;28;20212;-71
2022/07/16 08:57:48;;;;;;;4.73;2.70;;;24.40;97.20;;;;;;1713792;28;20208;-72
2022/07/16 08:58:40;;;;;;;4.88;2.53;;;24.40;97.20;;;;;;1713879;28;20332;-71
2022/07/16 08:59:32;;;;;;;4.95;2.70;;;24.40;97.20;;;;;;1713993;28;20205;-72
2022/07/16 09:00:22;;;;;;;8.50;3.67;;;24.40;97.20;;;;;;1713908;28;20209;-71
2022/07/16 09:01:14;;;;;;;8.67;7.97;;;24.40;97.20;;;;;;1713980;28;20229;-71
2022/07/16 09:02:05;;;;;;;7.25;6.60;;;24.40;97.20;;;;;;1713901;28;20579;-70
2022/07/16 09:02:57;;;;;;;3.53;3.23;;;24.40;97.20;;;;;;1713578;28;20648;-72
2022/07/16 09:03:48;;;;;;;5.47;4.47;;;24.40;97.20;;;;;;1713785;28;20579;-71
2022/07/16 09:04:40;;;;;;;8.23;3.40;;;24.40;97.20;;;;;;1713756;28;20225;-71
2022/07/16 09:05:30;;;;;;;6.40;4.40;;;24.50;97.20;;;;;;1713825;28;20473;-71
2022/07/16 09:06:22;;;;;;;4.47;4.07;;;24.50;97.20;;;;;;1713708;28;20284;-70
2022/07/16 09:07:15;;;;;;;4.40;3.55;;;24.50;97.20;;;;;;1713643;28;20450;-71
2022/07/16 09:08:07;;;;;;;4.28;3.35;;;24.50;97.20;;;;;;1712200;28;20221;-72
2022/07/16 09:08:58;;;;;;;6.88;3.30;;;24.50;97.20;;;;;;1711175;28;20209;-72
2022/07/16 09:09:50;;;;;;;3.70;2.70;;;24.60;97.20;;;;;;1707192;28;20285;-71
2022/07/16 09:10:41;;;;;;;3.88;3.47;;;24.60;97.20;;;;;;1709282;28;20450;-72
2022/07/16 09:11:35;;;;;;;4.00;2.63;;;24.60;97.20;;;;;;1713867;28;20210;-71
2022/07/16 09:12:33;;;;;;;2.95;2.60;;;24.70;97.20;;;;;;1713873;28;20206;-71
2022/07/16 09:13:25;;;;;;;3.20;2.88;;;24.70;97.20;;;;;;1713809;28;20297;-71
2022/07/16 09:14:18;;;;;;;4.20;2.90;;;24.70;97.20;;;;;;1713882;28;20217;-72
2022/07/16 09:15:28;;;;;;;3.45;2.35;;;24.80;97.20;;;;;;1713911;28;20477;-72
2022/07/16 09:16:27;;;;;;;3.15;2.35;;;24.80;97.20;;;;;;1713823;28;20202;-72
2022/07/16 09:17:19;;;;;;;3.83;2.20;;;24.80;97.20;;;;;;1713643;28;20277;-71
2022/07/16 09:18:21;;;;;;;3.28;2.22;;;24.80;97.20;;;;;;1713778;28;20202;-71
2022/07/16 09:19:15;;;;;;;3.60;2.30;;;24.90;97.20;;;;;;1713966;28;20198;-71
2022/07/16 09:20:07;;;;;;;4.00;2.42;;;24.90;97.20;;;;;;1713522;28;20450;-71
2022/07/16 09:21:01;;;;;;;3.58;2.75;;;24.90;97.20;;;;;;1713465;28;20216;-71
2022/07/16 09:22:04;;;;;;;3.85;2.70;;;24.90;97.20;;;;;;1713919;28;20337;-71
2022/07/16 09:22:57;;;;;;;5.10;2.47;;;25.00;97.20;;;;;;1713883;28;20213;-73
2022/07/16 09:23:48;;;;;;;3.67;2.50;;;25.00;97.20;;;;;;1713691;28;20201;-72
2022/07/16 09:24:42;;;;;;;4.05;2.60;;;25.00;97.20;;;;;;1713363;28;20209;-72
2022/07/16 09:25:34;;;;;;;3.90;2.10;;;25.00;97.20;;;;;;1713131;28;20241;-72
2022/07/16 09:26:27;;;;;;;2.17;1.97;;;25.10;97.20;;;;;;1713667;28;20216;-72
2022/07/16 09:27:20;;;;;;;2.38;1.95;;;25.10;97.20;;;;;;1713402;28;20507;-71
2022/07/16 09:28:11;;;;;;;3.03;2.28;;;25.10;97.20;;;;;;1713540;28;20206;-72
2022/07/16 09:29:05;;;;;;;3.60;2.10;;;25.10;97.20;;;;;;1713694;28;20285;-72
2022/07/16 09:29:58;;;;;;;3.58;2.13;;;25.10;97.20;;;;;;1712905;28;20202;-72
2022/07/16 09:30:50;;;;;;;2.20;2.00;;;25.10;97.20;;;;;;1713528;28;20229;-73
2022/07/16 09:31:42;;;;;;;2.83;1.73;;;25.10;97.10;;;;;;1713850;28;20586;-72
2022/07/16 09:32:36;;;;;;;2.88;2.10;;;25.20;96.70;;;;;;1714029;28;20445;-72
2022/07/16 09:33:27;;;;;;;3.40;2.00;;;25.10;96.20;;;;;;1713845;28;20206;-73
2022/07/16 09:34:21;;;;;;;3.30;2.17;;;25.20;95.80;;;;;;1713793;28;20198;-73